Antonio B. Won Pat International Airport
PGUM : now visible

Airfield :











YOU CAN JOIN US ON...

 
LOGIN :

Register | Disclaimer

   EN    FR    IT 

 









Legend :    VFR   Marginal VFR   IFR   Intensive IFR   Very Intensive IFR
Visi :
Ceiling :
>= 8 km
>= 3000ft
5 to 8 km
1000 to 3000 ft
1500m to 5 km
500 to 1000 ft
800 to 1500m
200 to 500 ft
< 800m
< 200 ft
Symbols :   Thunderstorms  Fog  Heavy snow  Heavy precipitations  Wind > 20 kt







- Airport Elevation : 298 ft
- IATA code : GUM


PGUM - Antonio B. Won Pat International

CURRENT METAR :
  • 201154Z 17008KT 10SM SCT017 SCT023 28/24 A2986 RMK AO2 SLP103 T02780239 10306 20272 53015

EXPIRED METARs :
  • 201054Z 20005KT 10SM CLR 27/24 A2984 RMK AO2 SLP098 T02720239
  • 201035Z 19006KT 10SM FEW017 SCT029 28/24 A2983 RMK AO2 T02780239
  • 201007Z 18006KT 10SM BKN017 BKN023 BKN034 28/24 A2982 RMK AO2 T02830239
  • 200954Z 17006KT 10SM SCT017 BKN034 28/24 A2982 RMK AO2 SLP089 T02830239

TAF PGUM
Valid from the 20 at 12:00 until the 21 at 18:00 UTC


201132Z 2012/2118 19006KT P6SM VCSH FEW018 SCT030
PGZU FIR / Oceania



MET'MAP, your aeronautical weather chart ! - Copyright ORBIFLY December 2007 - Disclaimer

ORBIFLY MET'MAP TEAM :

Programming & Development : Alexandra Zaïnal
Concept & Development : Baudouin d'Aumeries
Co-Development & Prog : Marc-Olivier Méhu
Technical & hardware support : Manuel Goepfert

Contact : metmap@orbifly.com




SOURCES & CREDITS :

   NOAA       Earth
Advisory